Time;durP1;ratioP1;P1;durP2;ratioP2;P2;SDS_P1;SDS_P2;PMS_P1;PMS_P2;Temp;Humidity;BMP_temperature;BMP_pressure;BME280_temperature;BME280_humidity;BME280_pressure;Samples;Min_cycle;Max_cycle;Signal;HPM_P1;HPM_P2
2022/01/31 00:00:15;;;;;;;84.13;38.10;;;;;;;-0.31;100.00;101124.03;4971556;28;20494;-73
2022/01/31 00:02:46;;;;;;;86.20;39.85;;;;;;;-0.28;100.00;101100.25;4972608;28;20596;-76
2022/01/31 00:05:16;;;;;;;86.43;38.72;;;;;;;-0.22;100.00;101106.72;4973147;28;20043;-76
2022/01/31 00:07:44;;;;;;;83.45;37.65;;;;;;;-0.18;100.00;101101.78;4973054;28;20047;-76
2022/01/31 00:10:56;;;;;;;85.90;37.65;;;;;;;-0.22;100.00;101090.59;4974726;28;20046;-74
2022/01/31 00:13:46;;;;;;;87.00;35.88;;;;;;;-0.34;100.00;101103.72;4972490;28;20074;-75
2022/01/31 00:16:17;;;;;;;93.80;37.22;;;;;;;-0.42;100.00;101101.19;4972089;28;20766;-75
2022/01/31 00:18:45;;;;;;;87.32;36.17;;;;;;;-0.29;100.00;101098.59;4972442;28;20050;-75
2022/01/31 00:21:13;;;;;;;90.13;37.30;;;;;;;-0.21;100.00;101083.34;4971692;28;20504;-75
2022/01/31 00:23:41;;;;;;;86.20;37.97;;;;;;;-0.23;100.00;101085.41;4972377;28;20065;-74
2022/01/31 00:26:09;;;;;;;89.85;38.00;;;;;;;-0.27;100.00;101079.59;4972854;28;20046;-75
2022/01/31 00:28:37;;;;;;;83.07;35.05;;;;;;;-0.32;100.00;101069.41;4972278;28;20047;-75
2022/01/31 00:31:06;;;;;;;88.15;36.85;;;;;;;-0.05;100.00;101079.53;4973098;28;20035;-75
2022/01/31 00:33:34;;;;;;;78.55;37.35;;;;;;;-0.16;100.00;101070.13;4953123;28;20051;-75
2022/01/31 00:36:02;;;;;;;97.05;37.47;;;;;;;-0.30;100.00;101072.72;4972514;28;20062;-75
2022/01/31 00:38:30;;;;;;;92.70;38.50;;;;;;;-0.41;100.00;101066.03;4956905;28;20039;-75
2022/01/31 00:40:58;;;;;;;92.30;36.10;;;;;;;-0.51;100.00;101070.91;4970322;28;20054;-75
2022/01/31 00:43:26;;;;;;;82.68;37.80;;;;;;;-0.60;100.00;101055.94;4975667;28;20051;-75
2022/01/31 00:46:00;;;;;;;86.82;37.90;;;;;;;-0.63;100.00;101043.69;4975858;28;20393;-75
2022/01/31 00:48:33;;;;;;;77.47;36.00;;;;;;;-0.68;100.00;101040.78;4976558;28;20070;-74
2022/01/31 00:51:01;;;;;;;74.70;35.73;;;;;;;-0.70;100.00;101032.91;4958721;28;20409;-75
2022/01/31 00:53:29;;;;;;;79.15;37.03;;;;;;;-0.60;100.00;101027.19;4975680;28;20050;-74
2022/01/31 00:55:57;;;;;;;75.47;35.20;;;;;;;-0.61;100.00;101016.63;4958526;28;20046;-75
2022/01/31 00:58:25;;;;;;;91.10;35.30;;;;;;;-0.67;100.00;101002.13;4975786;28;20055;-74
2022/01/31 01:00:54;;;;;;;83.38;37.70;;;;;;;-0.70;100.00;101008.72;4949546;28;20047;-74
2022/01/31 01:03:22;;;;;;;84.47;35.67;;;;;;;-0.71;100.00;101003.53;4976559;28;20058;-75
2022/01/31 01:05:50;;;;;;;89.32;37.03;;;;;;;-0.61;100.00;101001.34;4976141;28;20398;-75
2022/01/31 01:08:18;;;;;;;80.20;37.45;;;;;;;-0.54;100.00;100996.00;4958574;28;20051;-74
2022/01/31 01:10:46;;;;;;;88.82;36.03;;;;;;;-0.62;100.00;101004.22;4958303;28;20066;-74
2022/01/31 01:13:14;;;;;;;79.28;36.13;;;;;;;-0.65;100.00;101005.44;4975651;28;20051;-74
2022/01/31 01:15:42;;;;;;;79.82;35.60;;;;;;;-0.72;100.00;101008.09;4975363;28;20063;-74
2022/01/31 01:18:10;;;;;;;76.07;36.42;;;;;;;-0.78;100.00;101002.66;4957952;28;20061;-74
2022/01/31 01:20:37;;;;;;;74.15;35.53;;;;;;;-0.80;100.00;101002.03;4968858;28;20060;-75
2022/01/31 01:23:05;;;;;;;90.97;36.75;;;;;;;-0.84;100.00;100997.03;4953846;28;20043;-75
2022/01/31 01:25:33;;;;;;;78.47;36.08;;;;;;;-0.88;100.00;100986.84;4974538;28;20057;-75
2022/01/31 01:28:03;;;;;;;77.85;34.42;;;;;;;-0.89;100.00;100993.25;4958173;28;20051;-74
2022/01/31 01:30:31;;;;;;;88.38;37.03;;;;;;;-0.78;100.00;100983.84;4975881;28;20050;-74
2022/01/31 01:33:09;;;;;;;89.32;34.85;;;;;;;-0.83;100.00;100981.75;4974954;28;20054;-75
2022/01/31 01:35:39;;;;;;;72.70;33.60;;;;;;;-0.91;100.00;100969.25;4942622;28;20055;-75
2022/01/31 01:38:07;;;;;;;75.10;32.70;;;;;;;-0.85;100.00;100973.03;4958375;28;20573;-75
2022/01/31 01:40:39;;;;;;;81.20;35.75;;;;;;;-0.91;100.00;100974.63;4951567;28;20482;-75
2022/01/31 01:43:11;;;;;;;82.90;35.95;;;;;;;-0.95;100.00;100978.72;4944788;28;20092;-75
2022/01/31 01:45:40;;;;;;;79.32;33.92;;;;;;;-0.73;100.00;100982.22;4974529;28;20047;-74
2022/01/31 01:48:10;;;;;;;84.90;35.33;;;;;;;-0.64;100.00;100980.22;4957945;28;20047;-75
2022/01/31 01:50:40;;;;;;;78.72;34.33;;;;;;;-0.72;100.00;100962.41;4957349;28;20054;-74
2022/01/31 01:53:09;;;;;;;74.63;32.90;;;;;;;-0.72;100.00;100945.44;4957973;28;20070;-74
2022/01/31 01:55:37;;;;;;;82.38;36.28;;;;;;;-0.83;100.00;100934.19;4972568;28;20063;-75
2022/01/31 01:58:14;;;;;;;82.18;34.35;;;;;;;-0.90;100.00;100933.31;4974627;28;20054;-74
2022/01/31 02:00:50;;;;;;;88.20;35.08;;;;;;;-0.95;100.00;100922.31;4973471;28;20058;-74
2022/01/31 02:03:35;;;;;;;81.80;33.88;;;;;;;-0.93;100.00;100917.56;4973442;28;20077;-74
2022/01/31 02:06:03;;;;;;;;;;;;;;;-0.99;100.00;100918.34;4974190;28;20053;-75
2022/01/31 02:08:43;;;;;;;68.22;32.53;;;;;;;-1.08;100.00;100904.22;4974610;28;19926;-75
2022/01/31 02:11:20;;;;;;;74.28;32.88;;;;;;;-1.10;100.00;100901.75;4969964;28;20047;-74
2022/01/31 02:13:53;;;;;;;78.03;32.15;;;;;;;-1.14;100.00;100895.09;4964490;28;20055;-75
2022/01/31 02:16:30;;;;;;;72.63;32.30;;;;;;;-1.13;100.00;100898.63;4974849;28;20166;-74
2022/01/31 02:19:13;;;;;;;68.90;32.67;;;;;;;-1.14;100.00;100902.31;4973806;28;20042;-74
2022/01/31 02:22:11;;;;;;;85.50;34.65;;;;;;;-1.02;100.00;100891.88;4966008;28;20062;-74
2022/01/31 02:24:58;;;;;;;67.03;31.33;;;;;;;-1.08;100.00;100877.34;4974905;28;20047;-74
2022/01/31 02:27:30;;;;;;;77.20;31.25;;;;;;;-1.10;100.00;100879.41;4974832;28;20050;-74
2022/01/31 02:30:03;;;;;;;74.13;33.08;;;;;;;-1.12;100.00;100884.97;4972824;28;20054;-75
2022/01/31 02:32:34;;;;;;;79.13;33.00;;;;;;;-1.11;100.00;100883.94;4972953;28;20114;-74
2022/01/31 02:35:04;;;;;;;80.82;33.60;;;;;;;-0.95;100.00;100876.63;4972457;28;20055;-74
2022/01/31 02:37:33;;;;;;;82.55;34.78;;;;;;;-0.75;100.00;100873.22;4972915;28;20054;-74
2022/01/31 02:40:14;;;;;;;82.40;35.45;;;;;;;-0.64;100.00;100867.31;4966425;28;20043;-74
2022/01/31 02:42:42;;;;;;;75.95;33.63;;;;;;;-0.73;100.00;100873.88;4974175;28;20451;-74
2022/01/31 02:45:10;;;;;;;79.70;33.60;;;;;;;-0.74;100.00;100869.53;4974146;28;20501;-75
2022/01/31 02:47:41;;;;;;;77.32;33.53;;;;;;;-0.82;100.00;100871.34;4972615;28;20055;-74
2022/01/31 02:50:13;;;;;;;78.70;32.30;;;;;;;-0.93;100.00;100852.25;4974300;28;20510;-75
2022/01/31 02:52:47;;;;;;;75.05;33.33;;;;;;;-0.95;100.00;100855.13;4972620;28;20493;-74
2022/01/31 02:55:17;;;;;;;80.80;33.85;;;;;;;-1.03;100.00;100845.34;4972905;28;20402;-75
2022/01/31 02:57:44;;;;;;;76.40;32.80;;;;;;;-1.04;100.00;100834.84;4974359;28;20054;-74
2022/01/31 03:00:13;;;;;;;83.80;32.22;;;;;;;-1.06;100.00;100816.22;4972066;28;20055;-75
2022/01/31 03:02:59;;;;;;;74.45;33.47;;;;;;;-1.05;100.00;100807.13;4973048;28;20394;-74
2022/01/31 03:05:27;;;;;;;79.20;33.72;;;;;;;-0.95;100.00;100801.41;4972180;28;20501;-74
2022/01/31 03:07:56;;;;;;;77.45;33.33;;;;;;;-0.97;100.00;100793.53;4971525;28;20055;-74
2022/01/31 03:10:24;;;;;;;81.38;34.38;;;;;;;-0.96;100.00;100805.13;4971998;28;20410;-75
2022/01/31 03:12:52;;;;;;;80.10;34.17;;;;;;;-0.69;100.00;100784.59;4973540;28;20070;-75
2022/01/31 03:15:20;;;;;;;75.75;33.30;;;;;;;-0.70;100.00;100772.19;4957047;28;20050;-74
2022/01/31 03:18:17;;;;;;;76.00;30.02;;;;;;;-0.74;100.00;100753.97;4964358;28;20061;-74
2022/01/31 03:20:45;;;;;;;71.75;32.70;;;;;;;-0.79;100.00;100749.19;4972061;28;20501;-75
2022/01/31 03:23:13;;;;;;;71.65;31.67;;;;;;;-0.72;100.00;100752.75;4971600;28;20046;-75
2022/01/31 03:25:42;;;;;;;78.65;31.92;;;;;;;-0.64;100.00;100742.84;4972658;28;20050;-74
2022/01/31 03:28:12;;;;;;;87.53;34.97;;;;;;;-0.36;100.00;100740.03;4972433;28;20046;-75
2022/01/31 03:30:40;;;;;;;74.47;32.08;;;;;;;-0.41;100.00;100755.94;4973323;28;20050;-75
2022/01/31 03:33:08;;;;;;;66.38;34.15;;;;;;;-0.46;100.00;100742.25;4971661;28;20058;-74
2022/01/31 03:35:36;;;;;;;70.55;31.42;;;;;;;-0.57;100.00;100733.78;4973314;28;20077;-75
2022/01/31 03:38:04;;;;;;;72.07;32.63;;;;;;;-0.61;100.00;100737.88;4955851;28;20058;-74
2022/01/31 03:40:32;;;;;;;84.25;32.95;;;;;;;-0.57;100.00;100738.31;4965303;28;20398;-75
2022/01/31 03:43:00;;;;;;;72.60;32.42;;;;;;;-0.61;100.00;100743.28;4971646;28;20058;-74
2022/01/31 03:45:33;;;;;;;75.85;32.92;;;;;;;-0.69;100.00;100743.44;4971566;28;20047;-74
2022/01/31 03:48:20;;;;;;;71.00;32.85;;;;;;;-0.78;100.00;100736.59;4971837;28;20482;-74
2022/01/31 03:50:49;;;;;;;66.15;30.33;;;;;;;-0.87;100.00;100727.88;4972223;28;20701;-74
2022/01/31 03:53:18;;;;;;;66.68;29.33;;;;;;;-0.94;100.00;100711.69;4971521;28;20057;-73
2022/01/31 03:55:46;;;;;;;68.35;30.58;;;;;;;-1.02;100.00;100703.81;4926448;28;20486;-74
2022/01/31 03:58:13;;;;;;;65.35;28.83;;;;;;;-1.09;100.00;100706.47;4972915;28;20430;-75
2022/01/31 04:01:07;;;;;;;65.78;29.95;;;;;;;-1.17;100.00;100706.66;4968764;28;20395;-75
2022/01/31 04:03:36;;;;;;;64.72;28.10;;;;;;;-1.19;100.00;100706.84;4972119;28;20410;-75
2022/01/31 04:06:04;;;;;;;70.60;28.80;;;;;;;-1.22;100.00;100701.88;4972682;28;20058;-74
2022/01/31 04:08:32;;;;;;;73.18;30.45;;;;;;;-1.23;100.00;100702.88;4972423;28;20051;-75
2022/01/31 04:10:59;;;;;;;72.90;29.45;;;;;;;-1.24;100.00;100703.91;4971996;28;20046;-75
2022/01/31 04:13:27;;;;;;;82.88;31.00;;;;;;;-1.19;100.00;100697.97;4974484;28;20042;-74
2022/01/31 04:15:55;;;;;;;72.90;30.95;;;;;;;-1.20;100.00;100696.28;4976224;28;20054;-75
2022/01/31 04:18:23;;;;;;;68.60;29.33;;;;;;;-1.11;100.00;100687.84;4976877;28;20058;-74
2022/01/31 04:20:51;;;;;;;76.13;29.17;;;;;;;-1.10;100.00;100681.47;4976610;28;20055;-74
2022/01/31 04:23:20;;;;;;;61.65;27.75;;;;;;;-1.09;100.00;100693.03;4976700;28;20043;-74
2022/01/31 04:28:22;;;;;;;58.40;27.52;;;;;;;-1.11;100.00;100674.44;4976376;28;20050;-74
2022/01/31 04:31:00;;;;;;;66.32;29.10;;;;;;;-1.10;100.00;100649.25;4976174;28;20047;-74
2022/01/31 04:33:28;;;;;;;67.47;28.33;;;;;;;-1.08;100.00;100641.81;4976168;28;20043;-74
2022/01/31 04:35:56;;;;;;;60.20;28.08;;;;;;;-1.02;100.00;100640.16;4976116;28;20398;-75
2022/01/31 04:38:24;;;;;;;71.05;29.13;;;;;;;-0.98;100.00;100648.69;4975871;28;20062;-74
2022/01/31 04:40:52;;;;;;;64.07;29.73;;;;;;;-0.97;100.00;100631.53;4970401;28;20043;-74
2022/01/31 04:43:20;;;;;;;68.65;27.38;;;;;;;-0.93;100.00;100640.81;4976659;28;20414;-74
2022/01/31 04:45:49;;;;;;;66.00;28.00;;;;;;;-0.86;100.00;100639.00;4975365;28;20047;-74
2022/01/31 04:48:19;;;;;;;69.25;29.73;;;;;;;-0.76;100.00;100646.66;4976209;28;20061;-74
2022/01/31 04:50:48;;;;;;;62.38;27.73;;;;;;;-0.63;100.00;100648.53;4975382;28;20054;-74
2022/01/31 04:53:16;;;;;;;63.20;26.90;;;;;;;-0.66;100.00;100640.91;4959751;28;20061;-74
2022/01/31 04:55:44;;;;;;;62.22;27.27;;;;;;;-0.69;100.00;100634.06;4956474;29;20050;-74
2022/01/31 04:58:12;;;;;;;68.95;29.13;;;;;;;-0.60;100.00;100633.88;4956376;29;20058;-74
2022/01/31 05:00:40;;;;;;;66.13;28.70;;;;;;;-0.64;100.00;100644.19;4956722;29;20162;-74
2022/01/31 05:03:14;;;;;;;71.45;28.23;;;;;;;-0.65;100.00;100645.22;4928595;29;20054;-74
2022/01/31 05:05:43;;;;;;;65.97;27.60;;;;;;;-0.65;100.00;100633.66;4933457;29;20044;-74
2022/01/31 05:08:12;;;;;;;56.47;26.33;;;;;;;-0.67;100.00;100636.56;4935313;29;20403;-75
2022/01/31 05:10:46;;;;;;;64.07;27.35;;;;;;;-0.63;100.00;100632.41;4937196;29;20051;-74
2022/01/31 05:13:15;;;;;;;;;;;;;;;-0.69;100.00;100644.81;4933670;29;20044;-75
2022/01/31 05:15:44;;;;;;;61.83;26.10;;;;;;;-0.61;100.00;100640.28;4932399;29;19922;-75
2022/01/31 05:18:13;;;;;;;57.65;27.70;;;;;;;-0.66;100.00;100637.38;4933893;29;20052;-74
2022/01/31 05:20:42;;;;;;;57.00;26.65;;;;;;;-0.53;100.00;100639.25;4929772;29;20059;-74
2022/01/31 05:23:10;;;;;;;62.38;27.20;;;;;;;-0.47;100.00;100635.75;4934846;29;20051;-74
2022/01/31 05:25:37;;;;;;;66.15;26.85;;;;;;;-0.53;100.00;100626.66;4933881;29;20047;-74
2022/01/31 05:28:05;;;;;;;58.40;24.60;;;;;;;-0.53;100.00;100620.44;4933308;29;20052;-74
2022/01/31 05:30:33;;;;;;;57.40;25.58;;;;;;;-0.50;100.00;100615.47;4934742;29;20060;-75
2022/01/31 05:33:02;;;;;;;63.38;24.73;;;;;;;-0.48;100.00;100608.06;4931790;29;20047;-74
2022/01/31 05:35:30;;;;;;;51.92;24.75;;;;;;;-0.42;100.00;100601.00;4937169;29;20051;-74
2022/01/31 05:38:02;;;;;;;60.25;26.00;;;;;;;-0.19;100.00;100615.91;4920315;29;20414;-74
2022/01/31 05:40:31;;;;;;;54.35;24.30;;;;;;;-0.20;100.00;100616.97;4931816;29;20040;-74
2022/01/31 05:42:59;;;;;;;54.10;24.60;;;;;;;-0.28;100.00;100618.78;4933468;29;20494;-74
2022/01/31 05:45:27;;;;;;;61.58;24.83;;;;;;;-0.25;100.00;100619.44;4910408;29;20044;-74
2022/01/31 05:47:55;;;;;;;58.92;25.20;;;;;;;-0.22;100.00;100602.88;4916683;29;20047;-74
2022/01/31 05:50:23;;;;;;;54.70;25.85;;;;;;;0.02;100.00;100597.88;4934478;29;20063;-74
2022/01/31 05:52:51;;;;;;;59.10;25.63;;;;;;;0.00;99.73;100603.50;4936124;29;20043;-74
2022/01/31 05:55:19;;;;;;;57.83;24.67;;;;;;;-0.09;100.00;100597.50;4949557;29;20051;-74
2022/01/31 05:57:47;;;;;;;56.47;24.88;;;;;;;-0.22;99.78;100590.25;4949203;29;20407;-74
2022/01/31 06:00:21;;;;;;;59.08;25.33;;;;;;;-0.34;100.00;100589.22;4947428;29;20059;-74
2022/01/31 06:02:57;;;;;;;53.13;24.98;;;;;;;-0.16;100.00;100583.22;4950966;28;20513;-74
2022/01/31 06:05:26;;;;;;;57.28;26.05;;;;;;;-0.13;99.44;100582.81;4948756;29;20067;-75
2022/01/31 06:07:57;;;;;;;50.25;23.95;;;;;;;-0.06;99.46;100578.25;4944728;29;20055;-75
2022/01/31 06:10:25;;;;;;;55.50;23.77;;;;;;;-0.03;99.46;100585.91;4948476;29;20043;-75
2022/01/31 06:12:55;;;;;;;54.47;24.42;;;;;;;0.08;98.77;100583.59;4918050;29;20066;-74
2022/01/31 06:15:23;;;;;;;50.00;23.80;;;;;;;0.09;98.02;100569.94;4939844;29;20047;-75
2022/01/31 06:17:51;;;;;;;58.60;24.75;;;;;;;0.09;98.04;100569.94;4954530;28;20051;-76
2022/01/31 06:20:25;;;;;;;58.40;23.73;;;;;;;-0.11;98.85;100553.81;4961140;28;20050;-75
2022/01/31 06:22:53;;;;;;;56.67;24.23;;;;;;;-0.25;100.00;100553.00;4956152;28;20042;-75
2022/01/31 06:25:21;;;;;;;57.05;24.05;;;;;;;-0.32;100.00;100553.03;4954167;28;20059;-75
2022/01/31 06:27:51;;;;;;;57.95;23.90;;;;;;;-0.41;100.00;100540.81;4935618;29;20043;-75
2022/01/31 06:30:27;;;;;;;52.70;22.50;;;;;;;-0.45;100.00;100531.50;4935751;29;20070;-75
2022/01/31 06:32:55;;;;;;;52.00;23.75;;;;;;;-0.41;100.00;100535.44;4936886;29;20035;-75
2022/01/31 06:35:24;;;;;;;58.75;24.77;;;;;;;-0.37;100.00;100517.88;4954024;29;20394;-75
2022/01/31 06:37:53;;;;;;;51.17;23.05;;;;;;;-0.34;100.00;100506.69;4946687;29;20059;-74
2022/01/31 06:40:20;;;;;;;47.60;22.80;;;;;;;-0.31;100.00;100498.22;4954070;29;20055;-75
2022/01/31 06:42:49;;;;;;;56.85;24.98;;;;;;;0.18;100.00;100494.34;4954334;29;20043;-74
2022/01/31 06:45:17;;;;;;;53.78;22.73;;;;;;;0.40;97.25;100484.13;4918512;29;20056;-74
2022/01/31 06:47:45;;;;;;;48.88;21.42;;;;;;;0.38;96.88;100478.09;4953480;29;20055;-75
2022/01/31 06:50:14;;;;;;;50.22;23.27;;;;;;;0.36;96.19;100478.34;4936585;29;20050;-75
2022/01/31 06:52:42;;;;;;;47.38;21.85;;;;;;;0.44;96.38;100477.25;4953820;29;20050;-74
2022/01/31 06:55:19;;;;;;;48.45;22.40;;;;;;;0.38;96.06;100476.25;4953691;29;20650;-74
2022/01/31 06:57:51;;;;;;;51.55;22.70;;;;;;;0.26;96.74;100467.19;4952945;29;20051;-75
2022/01/31 07:00:20;;;;;;;49.63;21.73;;;;;;;0.23;97.00;100456.84;4954327;29;20058;-74
2022/01/31 07:02:49;;;;;;;52.70;22.85;;;;;;;0.21;97.79;100459.78;4930588;29;20039;-74
2022/01/31 07:05:19;;;;;;;47.70;21.55;;;;;;;0.42;97.09;100465.88;4954342;29;20047;-76
2022/01/31 07:07:47;;;;;;;53.22;23.67;;;;;;;0.48;96.41;100459.63;4953487;29;20055;-75
2022/01/31 07:10:15;;;;;;;50.67;22.88;;;;;;;0.36;97.26;100461.34;4953737;29;20051;-75
2022/01/31 07:12:51;;;;;;;56.70;23.67;;;;;;;0.33;96.71;100456.38;4953546;29;20499;-75
2022/01/31 07:15:20;;;;;;;46.20;22.17;;;;;;;0.29;96.98;100464.06;4953945;29;20502;-75
2022/01/31 07:17:48;;;;;;;52.40;23.08;;;;;;;0.34;97.15;100458.88;4952806;29;20066;-76
2022/01/31 07:20:41;;;;;;;52.25;22.73;;;;;;;0.56;96.39;100466.63;4953770;29;20054;-76
2022/01/31 07:23:16;;;;;;;50.40;22.52;;;;;;;0.86;94.69;100470.59;4953761;29;20040;-75
2022/01/31 07:25:44;;;;;;;49.95;23.05;;;;;;;0.88;94.92;100463.94;4953226;29;20055;-75
2022/01/31 07:28:16;;;;;;;54.28;24.23;;;;;;;0.93;94.16;100463.31;4952832;29;20050;-75
2022/01/31 07:30:46;;;;;;;52.97;24.65;;;;;;;0.80;94.45;100467.72;4953348;29;20054;-76
2022/01/31 07:33:16;;;;;;;58.38;24.35;;;;;;;0.84;94.87;100467.28;4953309;29;20047;-75
2022/01/31 07:35:46;;;;;;;50.95;23.70;;;;;;;1.10;93.91;100468.13;4953818;29;20042;-76
2022/01/31 07:38:15;;;;;;;53.90;23.52;;;;;;;1.17;93.13;100460.84;4949477;29;20039;-76
2022/01/31 07:40:43;;;;;;;46.95;25.08;;;;;;;1.04;93.70;100464.44;4953454;29;20085;-75
2022/01/31 07:43:12;;;;;;;56.05;23.10;;;;;;;0.94;94.67;100471.13;4948511;29;20039;-75
2022/01/31 07:45:40;;;;;;;53.10;23.85;;;;;;;0.83;95.43;100468.34;4936765;29;20479;-74
2022/01/31 07:48:08;;;;;;;52.72;24.00;;;;;;;0.91;95.96;100465.38;4953488;28;20074;-74
2022/01/31 07:50:37;;;;;;;52.38;23.10;;;;;;;1.07;95.27;100455.91;4936671;29;20050;-74
2022/01/31 07:53:05;;;;;;;51.47;23.17;;;;;;;1.21;94.73;100445.84;4937085;29;20047;-74
2022/01/31 07:55:33;;;;;;;58.33;24.33;;;;;;;1.31;94.26;100437.25;4971273;28;20039;-74
2022/01/31 07:58:02;;;;;;;57.10;25.50;;;;;;;1.40;94.50;100437.78;4973201;28;20055;-74
2022/01/31 08:00:47;;;;;;;58.85;26.38;;;;;;;1.51;93.81;100434.38;4952550;28;20051;-74
2022/01/31 08:03:16;;;;;;;60.88;25.35;;;;;;;1.64;94.20;100436.13;4973082;28;20401;-74
2022/01/31 08:05:44;;;;;;;61.88;23.77;;;;;;;1.75;93.16;100429.13;4970730;28;20038;-74
2022/01/31 08:08:12;;;;;;;55.90;25.38;;;;;;;2.17;91.28;100436.56;4961071;28;20050;-74
2022/01/31 08:10:40;;;;;;;56.78;25.88;;;;;;;2.24;90.84;100431.88;4955918;28;20544;-75
2022/01/31 08:13:08;;;;;;;58.03;24.77;;;;;;;2.49;89.07;100432.81;4972303;28;20379;-75
2022/01/31 08:18:23;;;;;;;55.47;24.20;;;;;;;2.45;88.52;100407.31;4972728;28;20057;-74
2022/01/31 08:20:51;;;;;;;45.00;23.63;;;;;;;2.35;88.35;100397.88;4972025;28;20043;-75
2022/01/31 08:23:19;;;;;;;59.63;24.85;;;;;;;2.52;88.13;100405.31;4972254;28;20059;-75
2022/01/31 08:25:49;;;;;;;51.28;24.10;;;;;;;2.69;87.16;100398.22;4972022;28;20065;-74
2022/01/31 08:28:20;;;;;;;51.47;24.38;;;;;;;2.77;86.18;100398.91;4955679;28;20410;-75
2022/01/31 08:30:57;;;;;;;44.00;23.40;;;;;;;2.50;87.67;100393.94;4972653;28;20038;-74
2022/01/31 08:33:34;;;;;;;61.13;24.80;;;;;;;2.37;88.96;100393.06;4972376;28;20057;-74
2022/01/31 08:36:04;;;;;;;57.17;24.85;;;;;;;2.50;89.12;100386.63;4944996;28;20046;-75
2022/01/31 08:38:36;;;;;;;57.03;25.45;;;;;;;2.41;89.48;100382.63;4971992;28;20058;-75
2022/01/31 08:41:06;;;;;;;59.20;26.90;;;;;;;2.38;90.72;100378.50;4971929;28;20061;-74
2022/01/31 08:43:36;;;;;;;51.95;26.08;;;;;;;2.55;89.56;100380.56;4972320;28;20050;-75
2022/01/31 08:46:06;;;;;;;57.38;26.67;;;;;;;2.56;88.60;100379.50;4972366;28;20046;-73
2022/01/31 08:48:34;;;;;;;54.78;24.13;;;;;;;2.55;88.70;100367.06;4950791;28;20044;-73
2022/01/31 08:51:04;;;;;;;51.10;23.55;;;;;;;2.62;88.08;100389.38;4931879;28;20047;-74
2022/01/31 08:53:33;;;;;;;47.55;23.63;;;;;;;2.85;87.52;100386.94;4952053;28;20054;-73
2022/01/31 08:56:09;;;;;;;53.58;25.42;;;;;;;3.01;87.10;100367.34;4969465;28;20045;-73
2022/01/31 08:58:43;;;;;;;52.90;24.27;;;;;;;3.07;87.24;100370.97;4968816;28;20062;-74
2022/01/31 09:01:16;;;;;;;55.40;25.67;;;;;;;3.25;86.08;100359.22;4962020;28;20047;-73
2022/01/31 09:06:27;;;;;;;51.45;25.42;;;;;;;2.95;87.91;100355.56;4974565;28;20051;-74
2022/01/31 09:08:57;;;;;;;57.17;25.35;;;;;;;2.90;87.99;100336.56;4975315;28;20506;-74
2022/01/31 09:11:26;;;;;;;52.03;25.83;;;;;;;2.98;88.09;100326.44;4975238;28;20700;-74
2022/01/31 09:13:54;;;;;;;48.00;23.33;;;;;;;2.89;87.13;100334.88;4976077;28;20498;-74
2022/01/31 09:16:22;;;;;;;54.38;23.30;;;;;;;2.91;88.31;100330.09;4958648;28;20051;-74
2022/01/31 09:18:50;;;;;;;52.80;23.42;;;;;;;2.93;87.62;100337.97;4974974;28;20062;-75
2022/01/31 09:21:19;;;;;;;54.22;23.70;;;;;;;3.18;86.25;100329.59;4975125;28;20057;-75
2022/01/31 09:23:52;;;;;;;52.38;23.70;;;;;;;3.32;86.39;100321.25;4970904;28;20407;-74
2022/01/31 09:26:24;;;;;;;46.40;23.80;;;;;;;3.43;86.53;100317.66;4959908;28;20051;-75
2022/01/31 09:28:53;;;;;;;52.30;23.52;;;;;;;3.29;86.12;100297.38;4965674;28;20052;-75
2022/01/31 09:31:22;;;;;;;51.58;23.55;;;;;;;3.53;85.17;100305.44;4947370;28;20050;-74
2022/01/31 09:33:50;;;;;;;52.47;23.75;;;;;;;3.72;84.11;100304.19;4973261;28;20047;-74
2022/01/31 09:36:18;;;;;;;49.63;23.52;;;;;;;3.81;82.96;100310.03;4961814;28;20058;-74
2022/01/31 09:38:46;;;;;;;46.75;23.65;;;;;;;3.62;83.01;100314.84;4971448;28;20054;-74
2022/01/31 09:41:20;;;;;;;49.20;23.02;;;;;;;3.55;83.96;100308.72;4973278;28;20050;-74
2022/01/31 09:44:05;;;;;;;48.03;21.55;;;;;;;3.50;84.93;100312.13;4972346;28;20063;-75
2022/01/31 09:46:47;;;;;;;52.35;23.88;;;;;;;3.86;84.94;100303.91;4975125;28;20058;-75
2022/01/31 09:49:16;;;;;;;46.05;22.08;;;;;;;4.14;83.72;100289.53;4968015;28;20414;-75
2022/01/31 09:51:44;;;;;;;74.70;30.73;;;;;;;4.52;81.46;100292.59;4974523;28;20066;-76
2022/01/31 09:54:12;;;;;;;64.10;28.70;;;;;;;4.86;79.90;100285.50;4965954;28;20050;-75
2022/01/31 09:56:43;;;;;;;54.17;25.80;;;;;;;5.07;79.22;100286.59;4963822;28;20059;-75
2022/01/31 09:59:14;;;;;;;49.00;24.58;;;;;;;5.60;76.65;100281.59;4958859;28;20054;-75
2022/01/31 10:01:47;;;;;;;53.70;26.00;;;;;;;5.85;75.81;100279.41;4955246;28;20127;-75
2022/01/31 10:04:22;;;;;;;52.00;25.38;;;;;;;6.04;73.60;100280.72;4955047;29;20044;-76
2022/01/31 10:06:54;;;;;;;;;;;;;;;5.99;73.70;100263.50;4945380;29;20054;-75
2022/01/31 10:09:24;;;;;;;54.45;24.63;;;;;;;5.69;73.82;100270.25;4961247;28;19930;-75
2022/01/31 10:12:10;;;;;;;64.85;26.88;;;;;;;5.86;72.92;100262.84;4959564;28;20051;-75
2022/01/31 10:17:34;;;;;;;56.30;26.00;;;;;;;6.12;70.74;100232.44;4973794;28;20055;-76
2022/01/31 10:20:11;;;;;;;66.25;28.55;;;;;;;6.11;69.86;100238.94;4952559;28;20517;-73
2022/01/31 10:22:39;;;;;;;59.15;27.08;;;;;;;6.01;71.42;100220.63;4954471;29;20495;-74
2022/01/31 10:25:10;;;;;;;62.55;26.95;;;;;;;6.37;72.28;100211.97;4954018;29;20066;-75
2022/01/31 10:27:58;;;;;;;56.05;24.92;;;;;;;6.80;69.46;100199.19;4954254;29;20051;-75
2022/01/31 10:30:30;;;;;;;54.65;26.52;;;;;;;6.88;69.91;100191.63;4962113;28;20050;-75
2022/01/31 10:32:58;;;;;;;57.33;26.10;;;;;;;6.87;68.45;100185.34;4957656;28;20050;-75
2022/01/31 10:35:34;;;;;;;53.38;25.23;;;;;;;6.92;71.10;100169.06;4965702;28;20035;-76
2022/01/31 10:38:10;;;;;;;63.28;26.33;;;;;;;7.24;66.20;100154.47;4952173;28;20080;-76
2022/01/31 10:56:55;;;;;;;54.05;25.33;;;;;;;7.35;67.75;100064.66;4944276;29;20046;-78
2022/01/31 10:59:39;;;;;;;54.38;24.67;;;;;;;7.33;67.05;100047.78;4940469;29;20046;-76
2022/01/31 11:02:18;;;;;;;50.08;24.80;;;;;;;7.68;66.00;100040.72;4946051;29;20051;-75
2022/01/31 11:04:48;;;;;;;56.75;25.15;;;;;;;8.00;64.96;100045.03;4946824;29;20067;-76
2022/01/31 11:07:23;;;;;;;54.30;25.75;;;;;;;7.88;65.49;100034.41;4943677;29;20047;-74
2022/01/31 11:09:53;;;;;;;58.85;26.65;;;;;;;8.15;63.30;100024.25;4947668;28;20066;-79
2022/01/31 11:38:35;;;;;;;51.97;24.52;;;;;;;8.42;63.50;99974.00;5031296;23;20054;-73
2022/01/31 11:41:05;;;;;;;52.22;23.40;;;;;;;8.83;61.55;99951.16;4946188;28;20528;-74
2022/01/31 11:43:36;;;;;;;50.47;25.23;;;;;;;8.62;61.07;99956.75;4926012;29;20047;-74
2022/01/31 11:46:06;;;;;;;53.53;26.48;;;;;;;9.09;59.59;99959.16;4952598;29;20054;-73
2022/01/31 11:48:38;;;;;;;52.28;25.15;;;;;;;8.73;60.23;99941.13;4949204;29;20055;-74
2022/01/31 11:51:06;;;;;;;52.22;24.58;;;;;;;8.63;61.87;99924.81;4937716;29;20525;-72
2022/01/31 11:53:36;;;;;;;55.25;25.13;;;;;;;8.66;61.58;99919.59;4932818;29;20063;-72
2022/01/31 11:56:21;;;;;;;54.72;24.55;;;;;;;8.70;60.96;99903.50;4933370;29;20047;-74
2022/01/31 11:58:52;;;;;;;52.47;25.05;;;;;;;9.09;61.43;99902.63;4951324;28;20065;-73
2022/01/31 12:01:22;;;;;;;50.40;25.40;;;;;;;8.92;62.77;99883.97;4969339;28;20066;-74
2022/01/31 12:03:58;;;;;;;52.97;23.67;;;;;;;8.76;64.17;99883.28;4957724;28;20501;-73
2022/01/31 12:06:37;;;;;;;51.67;24.80;;;;;;;8.62;62.95;99866.75;4930901;29;20055;-73
2022/01/31 12:09:10;;;;;;;59.72;25.83;;;;;;;8.45;63.65;99853.44;4954318;28;20055;-73
2022/01/31 12:12:08;;;;;;;51.22;24.80;;;;;;;8.85;61.29;99862.44;4954503;28;20051;-73
2022/01/31 12:14:48;;;;;;;51.63;24.60;;;;;;;8.65;62.85;99851.72;4951279;28;20671;-74
2022/01/31 12:17:49;;;;;;;46.92;23.27;;;;;;;8.29;63.63;99864.47;4924078;29;20168;-74
2022/01/31 12:21:59;;;;;;;49.05;26.60;;;;;;;8.27;63.45;99853.03;4933017;29;20383;-73